createdAt,value
2022-09-12T00:01:25.524Z,3.35
2022-09-12T00:03:55.919Z,3.72
2022-09-12T00:06:29.946Z,3.08
2022-09-12T00:09:01.873Z,3.13
2022-09-12T00:11:29.295Z,3.50
2022-09-12T00:14:01.563Z,3.10
2022-09-12T00:16:32.648Z,3.33
2022-09-12T00:19:01.428Z,3.60
2022-09-12T00:21:28.989Z,3.53
2022-09-12T00:23:56.727Z,3.58
2022-09-12T00:26:24.079Z,3.30
2022-09-12T00:28:51.348Z,3.53
2022-09-12T00:31:24.152Z,3.00
2022-09-12T00:33:52.407Z,3.63
2022-09-12T00:36:23.220Z,3.50
2022-09-12T00:38:51.225Z,3.80
2022-09-12T00:41:26.976Z,3.70
2022-09-12T00:44:10.174Z,3.47
2022-09-12T00:47:14.486Z,3.58
2022-09-12T00:50:10.203Z,3.38
2022-09-12T00:52:43.601Z,3.90
2022-09-12T00:55:26.385Z,3.90
2022-09-12T00:58:08.932Z,3.42
2022-09-12T01:00:36.546Z,3.10
2022-09-12T01:03:16.867Z,3.10
2022-09-12T01:06:07.371Z,3.58
2022-09-12T01:08:37.514Z,3.83
2022-09-12T01:11:06.953Z,3.70
2022-09-12T01:13:36.712Z,4.30
2022-09-12T01:16:06.263Z,3.72
2022-09-12T01:18:56.152Z,3.38
2022-09-12T01:21:56.966Z,3.25
2022-09-12T01:25:07.236Z,4.47
2022-09-12T01:27:53.880Z,3.30
2022-09-12T01:30:54.059Z,3.55
2022-09-12T01:33:54.225Z,3.60
2022-09-12T01:36:52.943Z,3.40
2022-09-12T01:39:44.709Z,3.85
2022-09-12T01:42:36.912Z,4.30
2022-09-12T01:45:27.139Z,3.75
2022-09-12T01:48:35.929Z,4.45
2022-09-12T01:51:27.756Z,3.50
2022-09-12T01:54:26.616Z,3.30
2022-09-12T01:57:00.549Z,4.00
2022-09-12T01:59:51.411Z,3.55
2022-09-12T02:03:03.138Z,3.92
2022-09-12T02:05:41.089Z,3.75
2022-09-12T02:08:20.595Z,4.13
2022-09-12T02:11:02.071Z,3.78
2022-09-12T02:13:49.433Z,3.60
2022-09-12T02:16:34.777Z,3.65
2022-09-12T02:19:15.684Z,4.03
2022-09-12T02:21:59.604Z,4.60
2022-09-12T02:24:39.531Z,3.92
2022-09-12T02:27:23.950Z,3.75
2022-09-12T02:29:51.823Z,3.75
2022-09-12T02:32:30.328Z,3.45
2022-09-12T02:35:11.102Z,3.40
2022-09-12T02:38:11.532Z,3.40
2022-09-12T02:40:39.056Z,3.80
2022-09-12T02:43:07.285Z,3.42
2022-09-12T02:45:36.423Z,3.63
2022-09-12T02:48:13.319Z,4.30
2022-09-12T02:50:42.072Z,3.40
2022-09-12T02:53:11.411Z,3.55
2022-09-12T02:55:41.981Z,3.67
2022-09-12T02:58:25.760Z,3.70
2022-09-12T03:01:36.123Z,3.50
2022-09-12T03:04:43.723Z,3.50
2022-09-12T03:07:34.424Z,3.38
2022-09-12T03:10:40.476Z,3.22
2022-09-12T03:13:57.326Z,3.13
2022-09-12T03:16:44.217Z,3.90
2022-09-12T03:19:33.244Z,3.42
2022-09-12T03:22:19.121Z,3.70
2022-09-12T03:25:06.087Z,3.53
2022-09-12T03:27:45.431Z,3.60
2022-09-12T03:30:13.042Z,3.63
2022-09-12T03:32:45.676Z,3.50
2022-09-12T03:35:14.812Z,3.60
2022-09-12T03:37:42.127Z,3.72
2022-09-12T03:40:12.438Z,4.07
2022-09-12T03:42:39.679Z,3.90
2022-09-12T03:45:08.262Z,4.30
2022-09-12T03:47:35.736Z,4.13
2022-09-12T03:50:04.526Z,3.90
2022-09-12T03:52:31.572Z,4.10
2022-09-12T03:54:58.655Z,3.40
2022-09-12T03:57:25.684Z,3.85
2022-09-12T03:59:52.676Z,4.20
2022-09-12T04:02:20.001Z,3.35
2022-09-12T04:04:48.864Z,4.05
2022-09-12T04:07:17.472Z,3.83
2022-09-12T04:09:44.797Z,4.30
2022-09-12T04:12:12.680Z,4.30
2022-09-12T04:14:40.229Z,4.45
2022-09-12T04:17:07.452Z,4.18
2022-09-12T04:19:34.615Z,3.88
2022-09-12T04:22:01.706Z,3.88
2022-09-12T04:24:28.659Z,4.30
2022-09-12T04:26:55.886Z,4.60
2022-09-12T04:29:23.077Z,4.60
2022-09-12T04:31:50.396Z,5.18
2022-09-12T04:34:17.806Z,4.20
2022-09-12T04:36:44.834Z,4.65
2022-09-12T04:39:12.437Z,4.35
2022-09-12T04:41:41.966Z,4.55
2022-09-12T04:44:14.100Z,4.05
2022-09-12T04:46:46.025Z,4.15
2022-09-12T04:49:16.305Z,4.40
2022-09-12T04:51:43.580Z,4.47
2022-09-12T04:54:18.552Z,4.28
2022-09-12T04:56:49.003Z,4.07
2022-09-12T04:59:19.428Z,4.20
2022-09-12T05:01:47.457Z,6.05
2022-09-12T05:04:14.759Z,3.70
2022-09-12T05:06:43.250Z,4.45
2022-09-12T05:09:14.318Z,3.88
2022-09-12T05:12:03.751Z,4.00
2022-09-12T05:14:33.201Z,3.80
2022-09-12T05:17:01.855Z,3.85
2022-09-12T05:19:30.753Z,3.80
2022-09-12T05:21:59.131Z,3.83
2022-09-12T05:24:32.788Z,3.75
2022-09-12T05:27:00.123Z,3.30
2022-09-12T05:29:32.807Z,4.05
2022-09-12T05:32:06.699Z,3.92
2022-09-12T05:34:34.169Z,3.67
2022-09-12T05:37:04.086Z,3.67
2022-09-12T05:39:33.901Z,3.72
2022-09-12T05:42:04.491Z,3.60
2022-09-12T05:44:31.549Z,3.13
2022-09-12T05:46:58.663Z,3.35
2022-09-12T05:49:30.523Z,3.45
2022-09-12T05:51:57.837Z,3.35
2022-09-12T05:54:34.509Z,3.72
2022-09-12T05:57:06.369Z,4.22
2022-09-12T05:59:41.436Z,4.05
2022-09-12T06:02:15.050Z,4.20
2022-09-12T06:04:43.359Z,3.90
2022-09-12T06:07:13.749Z,3.70
2022-09-12T06:09:43.452Z,3.60
2022-09-12T06:12:23.923Z,3.63
2022-09-12T06:15:00.130Z,2.90
2022-09-12T06:17:29.882Z,3.28
2022-09-12T06:20:02.399Z,2.90
2022-09-12T06:22:31.907Z,3.80
2022-09-12T06:25:01.681Z,2.92
2022-09-12T06:27:29.294Z,3.17
2022-09-12T06:30:15.778Z,3.30
2022-09-12T06:32:45.293Z,2.97
2022-09-12T06:35:21.454Z,3.00
2022-09-12T06:37:53.862Z,3.00
2022-09-12T06:40:23.969Z,2.90
2022-09-12T06:42:53.114Z,3.15
2022-09-12T06:45:26.269Z,2.60
2022-09-12T06:50:26.205Z,3.03
2022-09-12T06:52:55.885Z,2.40
2022-09-12T06:55:27.779Z,2.70
2022-09-12T06:57:58.211Z,2.20
2022-09-12T07:00:31.231Z,2.88
2022-09-12T07:03:01.247Z,2.40
2022-09-12T07:05:33.646Z,2.50
2022-09-12T07:08:11.102Z,2.10
2022-09-12T07:10:38.450Z,2.20
2022-09-12T07:13:06.949Z,2.60
2022-09-12T07:15:41.291Z,2.28
2022-09-12T07:18:17.022Z,2.03
2022-09-12T07:20:49.570Z,2.15
2022-09-12T07:23:19.631Z,2.10
2022-09-12T07:26:04.068Z,2.08
2022-09-12T07:28:36.802Z,2.28
2022-09-12T07:31:18.838Z,1.80
2022-09-12T07:33:54.415Z,2.17
2022-09-12T07:36:26.011Z,2.15
2022-09-12T07:39:03.157Z,1.88
2022-09-12T07:41:36.440Z,1.98
2022-09-12T07:44:06.791Z,4.03
2022-09-12T07:46:40.303Z,1.80
2022-09-12T07:49:15.229Z,1.80
2022-09-12T07:51:49.605Z,1.90
2022-09-12T07:54:24.478Z,2.08
2022-09-12T07:56:59.558Z,1.90
2022-09-12T07:59:52.639Z,1.73
2022-09-12T08:02:20.871Z,1.52
2022-09-12T08:04:49.279Z,1.60
2022-09-12T08:07:21.220Z,3.20
2022-09-12T08:09:50.624Z,1.80
2022-09-12T08:12:25.202Z,1.75
2022-09-12T08:14:52.480Z,2.33
2022-09-12T08:17:22.731Z,1.65
2022-09-12T08:19:51.055Z,1.73
2022-09-12T08:22:28.949Z,2.00
2022-09-12T08:24:58.810Z,2.28
2022-09-12T08:27:28.565Z,1.80
2022-09-12T08:29:58.297Z,1.80
2022-09-12T08:32:29.271Z,1.55
2022-09-12T08:34:58.857Z,1.40
2022-09-12T08:37:31.309Z,1.40
2022-09-12T08:39:58.653Z,1.63
2022-09-12T08:42:58.096Z,1.40
2022-09-12T08:45:57.500Z,1.50
2022-09-12T08:48:30.935Z,1.65
2022-09-12T08:51:05.406Z,2.30
2022-09-12T08:53:37.657Z,1.73
2022-09-12T08:56:11.959Z,2.43
2022-09-12T08:58:55.208Z,2.15
2022-09-12T09:01:45.806Z,1.98
2022-09-12T09:04:46.465Z,1.35
2022-09-12T09:07:50.140Z,1.58
2022-09-12T09:10:37.902Z,2.30
2022-09-12T09:13:10.442Z,1.77
2022-09-12T09:16:23.100Z,1.58
2022-09-12T09:18:56.038Z,1.48
2022-09-12T09:22:02.163Z,1.80
2022-09-12T09:24:40.020Z,1.50
2022-09-12T09:27:59.952Z,1.58
2022-09-12T09:30:31.072Z,1.58
2022-09-12T09:33:03.943Z,1.13
2022-09-12T09:36:12.815Z,1.95
2022-09-12T09:39:00.092Z,1.55
2022-09-12T09:41:51.477Z,1.80
2022-09-12T09:44:27.876Z,1.40
2022-09-12T09:47:00.670Z,1.27
2022-09-12T09:49:34.450Z,1.50
2022-09-12T09:52:08.324Z,1.50
2022-09-12T09:55:02.768Z,1.50
2022-09-12T09:57:39.106Z,1.50
2022-09-12T10:00:36.373Z,1.27
2022-09-12T10:03:15.611Z,1.65
2022-09-12T10:06:06.855Z,1.75
2022-09-12T10:08:39.428Z,1.50
2022-09-12T10:11:27.317Z,1.25
2022-09-12T10:14:01.400Z,1.30
2022-09-12T10:16:37.881Z,1.27
2022-09-12T10:19:07.788Z,1.50
2022-09-12T10:22:04.025Z,1.40
2022-09-12T10:24:48.905Z,1.60
2022-09-12T10:27:38.680Z,1.70
2022-09-12T10:30:14.738Z,1.80
2022-09-12T10:32:55.469Z,1.42
2022-09-12T10:35:50.929Z,1.10
2022-09-12T10:38:32.653Z,1.10
2022-09-12T10:41:05.777Z,1.10
2022-09-12T10:46:18.216Z,1.50
2022-09-12T10:48:51.526Z,1.23
2022-09-12T10:51:24.646Z,1.67
2022-09-12T10:57:02.958Z,1.40
2022-09-12T10:59:47.854Z,1.40
2022-09-12T11:02:20.415Z,1.80
2022-09-12T11:05:12.918Z,1.30
2022-09-12T11:07:49.348Z,1.55
2022-09-12T11:10:29.493Z,1.33
2022-09-12T11:13:05.075Z,1.90
2022-09-12T11:16:03.126Z,1.55
2022-09-12T11:18:54.908Z,4.35
2022-09-12T11:21:53.300Z,1.60
2022-09-12T11:24:40.500Z,1.40
2022-09-12T11:27:43.782Z,1.40
2022-09-12T11:30:17.730Z,1.38
2022-09-12T11:33:06.383Z,1.50
2022-09-12T11:35:41.000Z,1.30
2022-09-12T11:38:29.479Z,1.23
2022-09-12T11:41:06.579Z,1.67
2022-09-12T11:44:05.166Z,1.38
2022-09-12T11:46:37.507Z,2.10
2022-09-12T11:49:13.556Z,1.60
2022-09-12T11:52:19.953Z,1.70
2022-09-12T11:55:08.208Z,2.25
2022-09-12T11:57:50.407Z,1.40
2022-09-12T12:00:41.390Z,1.02
2022-09-12T12:03:37.221Z,1.13
2022-09-12T12:06:19.291Z,1.60
2022-09-12T12:08:49.132Z,1.30
2022-09-12T12:11:47.439Z,1.83
2022-09-12T12:14:42.606Z,1.13
2022-09-12T12:17:25.965Z,1.10
2022-09-12T12:22:36.115Z,1.15
2022-09-12T12:25:28.874Z,1.48
2022-09-12T12:28:02.036Z,1.08
2022-09-12T12:30:33.435Z,1.00
2022-09-12T12:33:10.229Z,1.42
2022-09-12T12:35:41.661Z,1.00
2022-09-12T12:38:34.480Z,1.20
2022-09-12T12:41:39.694Z,1.50
2022-09-12T12:44:45.195Z,1.67
2022-09-12T12:47:22.590Z,1.20
2022-09-12T12:50:21.366Z,1.10
2022-09-12T12:53:16.416Z,1.33
2022-09-12T12:55:43.377Z,0.98
2022-09-12T12:58:34.620Z,1.02
2022-09-12T13:01:14.566Z,1.70
2022-09-12T13:04:04.291Z,1.30
2022-09-12T13:06:42.366Z,1.23
2022-09-12T13:09:27.239Z,1.38
2022-09-12T13:12:05.322Z,1.73
2022-09-12T13:14:51.909Z,1.25
2022-09-12T13:17:36.179Z,1.55
2022-09-12T13:20:27.887Z,1.55
2022-09-12T13:22:56.782Z,1.60
2022-09-12T13:25:35.218Z,1.48
2022-09-12T13:28:11.429Z,1.02
2022-09-12T13:30:43.281Z,1.20
2022-09-12T13:33:24.830Z,1.42
2022-09-12T13:36:45.237Z,1.40
2022-09-12T13:39:40.438Z,1.05
2022-09-12T13:42:35.611Z,1.10
2022-09-12T13:45:27.537Z,1.23
2022-09-12T13:48:00.906Z,1.23
2022-09-12T13:50:54.571Z,1.42
2022-09-12T13:53:27.745Z,1.30
2022-09-12T13:56:00.374Z,1.00
2022-09-12T13:58:35.074Z,1.25
2022-09-12T14:01:02.160Z,1.00
2022-09-12T14:03:55.670Z,0.90
2022-09-12T14:06:27.689Z,1.25
2022-09-12T14:09:01.436Z,1.38
2022-09-12T14:11:31.012Z,1.10
2022-09-12T14:14:06.888Z,1.80
2022-09-12T14:16:40.576Z,1.92
2022-09-12T14:19:12.324Z,1.63
2022-09-12T14:21:39.630Z,1.17
2022-09-12T14:24:10.102Z,1.25
2022-09-12T14:26:40.584Z,2.10
2022-09-12T14:29:09.244Z,1.77
2022-09-12T14:31:39.399Z,1.80
2022-09-12T14:34:15.048Z,1.67
2022-09-12T14:36:57.190Z,1.90
2022-09-12T14:39:45.649Z,1.70
2022-09-12T14:42:18.319Z,2.08
2022-09-12T14:45:14.236Z,1.65
2022-09-12T14:47:44.571Z,1.95
2022-09-12T14:50:23.702Z,1.65
2022-09-12T14:53:17.112Z,2.10
2022-09-12T14:55:59.434Z,1.67
2022-09-12T14:58:28.624Z,1.75
2022-09-12T15:01:22.438Z,1.70
2022-09-12T15:03:54.044Z,1.63
2022-09-12T15:06:30.532Z,1.73
2022-09-12T15:09:03.368Z,1.50
2022-09-12T15:11:30.498Z,1.60
2022-09-12T15:13:57.672Z,1.70
2022-09-12T15:16:24.798Z,2.35
2022-09-12T15:18:51.794Z,1.70
2022-09-12T15:21:21.274Z,1.40
2022-09-12T15:23:53.943Z,1.73
2022-09-12T15:26:30.547Z,1.52
2022-09-12T15:28:58.079Z,2.10
2022-09-12T15:31:30.838Z,1.75
2022-09-12T15:34:00.888Z,2.85
2022-09-12T15:36:31.918Z,2.83
2022-09-12T15:38:58.924Z,1.67
2022-09-12T15:41:34.581Z,2.10
2022-09-12T15:44:04.557Z,3.60
2022-09-12T15:46:31.717Z,2.50
2022-09-12T15:48:58.824Z,2.70
2022-09-12T15:51:26.077Z,2.17
2022-09-12T15:53:53.098Z,2.10
2022-09-12T15:56:22.414Z,2.67
2022-09-12T15:59:05.436Z,2.90
2022-09-12T16:01:32.614Z,3.00
2022-09-12T16:04:00.016Z,3.00
2022-09-12T16:06:32.507Z,2.63
2022-09-12T16:09:03.395Z,2.60
2022-09-12T16:11:30.559Z,2.92
2022-09-12T16:13:58.133Z,3.50
2022-09-12T16:16:25.314Z,2.90
2022-09-12T16:18:52.629Z,3.55
2022-09-12T16:21:19.741Z,3.70
2022-09-12T16:23:48.139Z,3.80
2022-09-12T16:26:16.830Z,4.38
2022-09-12T16:28:44.695Z,4.60
2022-09-12T16:31:14.456Z,4.00
2022-09-12T16:33:41.758Z,4.93
2022-09-12T16:36:15.445Z,3.20
2022-09-12T16:38:51.713Z,3.70
2022-09-12T16:41:22.553Z,3.65
2022-09-12T16:43:51.189Z,6.93
2022-09-12T16:46:22.318Z,7.82
2022-09-12T16:48:54.145Z,5.93
2022-09-12T16:51:24.958Z,4.93
2022-09-12T16:53:52.714Z,6.47
2022-09-12T16:56:19.996Z,4.60
2022-09-12T16:58:47.807Z,3.35
2022-09-12T17:01:19.593Z,3.63
2022-09-12T17:03:47.304Z,3.63
2022-09-12T17:06:18.370Z,3.65
2022-09-12T17:08:49.978Z,4.18
2022-09-12T17:11:25.204Z,3.53
2022-09-12T17:14:11.372Z,4.53
2022-09-12T17:16:45.915Z,4.40
2022-09-12T17:19:21.708Z,4.10
2022-09-12T17:21:50.189Z,4.72
2022-09-12T17:24:18.918Z,7.60
2022-09-12T17:26:47.033Z,5.38
2022-09-12T17:29:15.820Z,5.30
2022-09-12T17:31:45.176Z,5.05
2022-09-12T17:34:14.738Z,4.95
2022-09-12T17:36:46.201Z,4.40
2022-09-12T17:39:14.802Z,5.28
2022-09-12T17:41:43.209Z,3.40
2022-09-12T17:44:15.242Z,2.83
2022-09-12T17:46:43.385Z,3.00
2022-09-12T17:49:16.837Z,3.00
2022-09-12T17:51:45.168Z,2.85
2022-09-12T17:54:16.209Z,2.83
2022-09-12T17:56:46.698Z,2.92
2022-09-12T17:59:23.027Z,3.60
2022-09-12T18:02:09.098Z,3.17
2022-09-12T18:04:36.679Z,3.08
2022-09-12T18:07:04.403Z,3.90
2022-09-12T18:09:31.817Z,4.20
2022-09-12T18:11:59.393Z,4.00
2022-09-12T18:14:28.454Z,3.25
2022-09-12T18:16:57.317Z,3.20
2022-09-12T18:19:25.269Z,3.13
2022-09-12T18:21:52.663Z,3.15
2022-09-12T18:24:20.119Z,3.22
2022-09-12T18:26:47.637Z,3.35
2022-09-12T18:29:20.087Z,3.20
2022-09-12T18:31:47.728Z,3.53
2022-09-12T18:34:18.245Z,3.45
2022-09-12T18:36:50.001Z,3.45
2022-09-12T18:39:18.330Z,3.55
2022-09-12T18:41:45.588Z,4.03
2022-09-12T18:44:13.748Z,4.10
2022-09-12T18:46:41.316Z,4.20
2022-09-12T18:49:10.761Z,4.63
2022-09-12T18:51:40.214Z,4.93
2022-09-12T18:54:13.434Z,6.18
2022-09-12T18:59:14.347Z,6.03
2022-09-12T19:01:43.033Z,5.60
2022-09-12T19:04:16.889Z,6.05
2022-09-12T19:06:48.223Z,5.97
2022-09-12T19:09:21.129Z,5.55
2022-09-12T19:11:49.793Z,5.63
2022-09-12T19:14:26.064Z,5.65
2022-09-12T19:16:54.114Z,6.88
2022-09-12T19:19:21.741Z,10.77
2022-09-12T19:21:49.137Z,7.10
2022-09-12T19:24:17.340Z,7.57
2022-09-12T19:26:45.169Z,5.72
2022-09-12T19:29:16.645Z,5.32
2022-09-12T19:31:45.637Z,5.22
2022-09-12T19:34:13.781Z,5.57
2022-09-12T19:36:46.739Z,6.00
2022-09-12T19:39:16.706Z,5.53
2022-09-12T19:41:44.643Z,6.20
2022-09-12T19:44:12.177Z,6.47
2022-09-12T19:46:39.566Z,7.68
2022-09-12T19:49:06.781Z,8.32
2022-09-12T19:51:34.286Z,7.75
2022-09-12T19:54:01.403Z,7.55
2022-09-12T19:56:28.452Z,8.20
2022-09-12T19:58:56.833Z,8.30
2022-09-12T20:01:30.395Z,7.30
2022-09-12T20:03:59.022Z,10.02
2022-09-12T20:06:27.523Z,9.65
2022-09-12T20:08:55.889Z,8.63
2022-09-12T20:11:24.135Z,7.80
2022-09-12T20:13:51.633Z,7.35
2022-09-12T20:16:29.175Z,7.20
2022-09-12T20:19:00.777Z,7.15
2022-09-12T20:21:35.926Z,9.40
2022-09-12T20:24:10.942Z,8.15
2022-09-12T20:37:40.556Z,7.82
2022-09-12T20:40:08.806Z,8.95
2022-09-12T20:42:36.775Z,7.30
2022-09-12T20:45:07.278Z,8.45
2022-09-12T20:47:34.308Z,9.95
2022-09-12T20:50:01.288Z,11.38
2022-09-12T20:52:28.291Z,10.10
2022-09-12T20:54:55.326Z,13.45
2022-09-12T20:57:23.251Z,10.25
2022-09-12T20:59:50.563Z,9.15
2022-09-12T21:02:17.825Z,9.25
2022-09-12T21:04:45.072Z,9.27
2022-09-12T21:07:12.119Z,8.57
2022-09-12T21:09:39.777Z,8.70
2022-09-12T21:12:06.984Z,8.73
2022-09-12T21:14:34.039Z,8.63
2022-09-12T21:17:01.107Z,9.20
2022-09-12T21:19:28.187Z,11.02
2022-09-12T21:21:55.186Z,9.30
2022-09-12T21:24:22.183Z,11.82
2022-09-12T21:26:49.357Z,13.65
2022-09-12T21:29:16.426Z,10.98
2022-09-12T21:31:44.127Z,10.05
2022-09-12T21:34:11.254Z,10.05
2022-09-12T21:36:38.334Z,11.35
2022-09-12T21:39:05.365Z,11.70
2022-09-12T21:41:32.343Z,12.52
2022-09-12T21:43:59.386Z,10.23
2022-09-12T21:46:26.537Z,9.73
2022-09-12T21:48:53.538Z,10.35
2022-09-12T21:51:20.572Z,11.35
2022-09-12T21:53:47.639Z,14.25
2022-09-12T21:56:14.723Z,10.90
2022-09-12T21:58:41.932Z,10.60
2022-09-12T22:01:12.648Z,13.65
2022-09-12T22:03:39.757Z,13.70
2022-09-12T22:06:07.649Z,13.57
2022-09-12T22:08:37.841Z,12.43
2022-09-12T22:11:10.884Z,12.40
2022-09-12T22:16:10.131Z,14.80
2022-09-12T22:18:38.131Z,14.85
2022-09-12T22:21:12.819Z,13.52
2022-09-12T22:23:58.799Z,14.32
2022-09-12T22:26:28.699Z,14.05
2022-09-12T22:28:56.017Z,15.77
2022-09-12T22:31:23.637Z,18.58
2022-09-12T22:33:51.481Z,15.85
2022-09-12T22:36:18.480Z,15.48
2022-09-12T22:38:45.506Z,17.77
2022-09-12T22:41:13.272Z,15.23
2022-09-12T22:43:40.992Z,14.77
2022-09-12T22:46:12.640Z,15.05
2022-09-12T22:48:40.688Z,14.85
2022-09-12T22:51:08.486Z,14.20
2022-09-12T22:53:36.590Z,13.75
2022-09-12T22:56:05.516Z,13.07
2022-09-12T22:58:36.721Z,13.13
2022-09-12T23:01:06.533Z,14.32
2022-09-12T23:03:34.168Z,12.80
2022-09-12T23:06:01.193Z,13.27
2022-09-12T23:08:29.737Z,14.00
2022-09-12T23:11:19.314Z,12.82
2022-09-12T23:13:49.230Z,13.02
2022-09-12T23:16:23.301Z,12.77
2022-09-12T23:18:50.836Z,12.35
2022-09-12T23:21:21.348Z,13.38
2022-09-12T23:23:49.193Z,13.02
2022-09-12T23:26:23.372Z,13.00
2022-09-12T23:29:00.083Z,14.50
2022-09-12T23:31:30.379Z,14.05
2022-09-12T23:34:02.005Z,15.77
2022-09-12T23:36:29.726Z,12.77
2022-09-12T23:38:57.303Z,13.35
2022-09-12T23:41:25.354Z,13.07
2022-09-12T23:43:52.557Z,12.27
2022-09-12T23:46:20.664Z,12.38
2022-09-12T23:48:48.595Z,12.65
2022-09-12T23:51:16.489Z,13.23
2022-09-12T23:53:43.630Z,17.60
2022-09-12T23:56:10.934Z,16.88
2022-09-12T23:58:38.039Z,12.07
